Megah Delapan — VRGA4 — position and weather

sailwx.info

Track history (hours):
 
Tides and Currents Weather Stations Pressure Air Temp Water Temp Dewpoint Dewpoint Depression Visibility Wind Speed Wind Dir Waves Ship Positions

Megah Delapan

Last reported at 2014-Jul-08 19:32 UTC. Time now 2014-Jul-23 15:35 UTC.
Position N 23°02' E 117°12'.
Warning: this ship's position is 14 days out of date.

Length 120 m; draft 7.6 m.

Type: Cargo ship. MMSI: 477639100.

Date/timePositionNaut miles runAvg speedWind from/ knotsBaromVisibWave heightAir tempDewpointWater temp
2014-Jul-08 19:32N 23°02' E 117°12'14911.4
2014-Jul-08 06:31N 22°47' E 119°53'1112.0
2014-Jul-08 05:33N 22°41' E 120°04'1111.1
2014-Jul-08 04:33N 22°37' E 120°15'2 2.3
2014-Jul-08 03:32N 22°37' E 120°18'0 0.0
2014-Jul-08 02:32N 22°37' E 120°18'0 0.0
2014-Jul-08 00:32N 22°37' E 120°18'0 0.0
2014-Jul-07 23:32N 22°37' E 120°18'0 0.0
2014-Jul-07 22:20N 22°37' E 120°18'0 0.0
2014-Jul-07 20:32N 22°37' E 120°18'0 0.0
2014-Jul-07 19:32N 22°37' E 120°18'0 0.0
2014-Jul-07 18:26N 22°37' E 120°18'0 0.0
2014-Jul-07 17:32N 22°37' E 120°18'0 0.0
2014-Jul-07 16:32N 22°37' E 120°18'0 0.0
2014-Jul-07 15:32N 22°37' E 120°18'0 0.0
2014-Jul-07 14:32N 22°37' E 120°18'0 0.0
2014-Jul-07 13:32N 22°37' E 120°18'0 0.0
2014-Jul-07 12:32N 22°37' E 120°18'0 0.0
2014-Jul-07 11:32N 22°37' E 120°18'0 0.0
2014-Jul-07 10:20N 22°37' E 120°17'0 0.1
2014-Jul-07 09:20N 22°37' E 120°18'0 0.0
2014-Jul-07 08:26N 22°37' E 120°18'0 0.0
2014-Jul-07 07:26N 22°37' E 120°18'0 0.0
2014-Jul-07 06:32N 22°37' E 120°18'0 0.0
2014-Jul-07 05:32N 22°37' E 120°18'0 0.0
2014-Jul-07 04:32N 22°37' E 120°18'0 0.0
2014-Jul-07 03:26N 22°37' E 120°18'0 0.0
2014-Jul-07 02:26N 22°37' E 120°18'0 0.0
2014-Jul-07 01:32N 22°37' E 120°18'1 0.4
2014-Jul-06 23:33N 22°37' E 120°17'3 3.3
2014-Jul-06 22:30N 22°36' E 120°13'0 0.1
2014-Jul-06 21:30N 22°36' E 120°13'0 0.1
2014-Jul-06 20:30N 22°36' E 120°13'0 0.0
2014-Jul-06 19:30N 22°36' E 120°13'0 0.0
2014-Jul-06 18:30N 22°36' E 120°13'0 0.1
2014-Jul-06 17:30N 22°36' E 120°13'0 0.0
2014-Jul-06 16:30N 22°36' E 120°13'0 0.0
2014-Jul-06 15:30N 22°36' E 120°13'0 0.0
2014-Jul-06 14:30N 22°36' E 120°13'0 0.0
2014-Jul-06 13:30N 22°36' E 120°13'0 0.1
2014-Jul-06 12:30N 22°36' E 120°13'0 0.0
2014-Jul-06 11:30N 22°36' E 120°13'0 0.0
2014-Jul-06 10:30N 22°36' E 120°13'0 0.1
2014-Jul-06 09:30N 22°36' E 120°13'0 0.1
2014-Jul-06 08:25N 22°36' E 120°13'6 7.2
2014-Jul-06 07:33N 22°41' E 120°09'  
2014-Jul-01 12:30N 34°52' E 139°22'1111.8
2014-Jul-01 11:33N 34°60' E 139°32'1212.0
2014-Jul-01 10:34N 35°07' E 139°43'1110.9
2014-Jul-01 09:34N 35°18' E 139°44'10 9.8
2014-Jul-01 08:34N 35°27' E 139°41'2 1.7
2014-Jul-01 07:31N 35°28' E 139°39'0 0.0
2014-Jul-01 06:31N 35°28' E 139°39'0 0.0
2014-Jul-01 05:31N 35°28' E 139°39'0 0.0
2014-Jul-01 04:31N 35°28' E 139°39'0 0.0
2014-Jul-01 03:31N 35°28' E 139°39'0 0.0
2014-Jul-01 02:31N 35°28' E 139°39'0 0.0
2014-Jul-01 01:31N 35°28' E 139°39'0 0.0
2014-Jul-01 00:31N 35°28' E 139°39'0 0.0
2014-Jun-30 23:31N 35°28' E 139°39'0 0.0
2014-Jun-30 22:31N 35°28' E 139°39'2 1.6
2014-Jun-30 21:33N 35°27' E 139°40'2 2.1
2014-Jun-30 20:32N 35°25' E 139°42'0 0.1
2014-Jun-30 19:32N 35°26' E 139°42'0 0.1
2014-Jun-30 18:32N 35°26' E 139°42'0 0.0
2014-Jun-30 17:32N 35°26' E 139°42'0 0.0
2014-Jun-30 16:32N 35°26' E 139°42'1 1.3
2014-Jun-30 15:33N 35°25' E 139°43'7 6.9
2014-Jun-30 14:33N 35°18' E 139°44'10 9.9
2014-Jun-30 13:33N 35°09' E 139°47'1212.1
2014-Jun-30 12:34N 34°59' E 139°38'1613.1
2014-Jun-30 11:21N 34°51' E 139°21'  
Track history (hours):
 
Tides and Currents Weather Stations Pressure Air Temp Water Temp Dewpoint Dewpoint Depression Visibility Wind Speed Wind Dir Waves Ship Positions

Megah Delapan

Last reported at 2014-Jul-08 19:32 UTC. Time now 2014-Jul-23 15:35 UTC.
Position N 23°02' E 117°12'.
Warning: this ship's position is 14 days out of date.

Length 120 m; draft 7.6 m.

Type: Cargo ship. MMSI: 477639100.

Date/timePositionNaut miles runAvg speedWind from/ knotsBaromVisibWave heightAir tempDewpointWater temp
2014-Jul-08 19:32N 23°02' E 117°12'14911.4
2014-Jul-08 06:31N 22°47' E 119°53'1112.0
2014-Jul-08 05:33N 22°41' E 120°04'1111.1
2014-Jul-08 04:33N 22°37' E 120°15'2 2.3
2014-Jul-08 03:32N 22°37' E 120°18'0 0.0
2014-Jul-08 02:32N 22°37' E 120°18'0 0.0
2014-Jul-08 00:32N 22°37' E 120°18'0 0.0
2014-Jul-07 23:32N 22°37' E 120°18'0 0.0
2014-Jul-07 22:20N 22°37' E 120°18'0 0.0
2014-Jul-07 20:32N 22°37' E 120°18'0 0.0
2014-Jul-07 19:32N 22°37' E 120°18'0 0.0
2014-Jul-07 18:26N 22°37' E 120°18'0 0.0
2014-Jul-07 17:32N 22°37' E 120°18'0 0.0
2014-Jul-07 16:32N 22°37' E 120°18'0 0.0
2014-Jul-07 15:32N 22°37' E 120°18'0 0.0
2014-Jul-07 14:32N 22°37' E 120°18'0 0.0
2014-Jul-07 13:32N 22°37' E 120°18'0 0.0
2014-Jul-07 12:32N 22°37' E 120°18'0 0.0
2014-Jul-07 11:32N 22°37' E 120°18'0 0.0
2014-Jul-07 10:20N 22°37' E 120°17'0 0.1
2014-Jul-07 09:20N 22°37' E 120°18'0 0.0
2014-Jul-07 08:26N 22°37' E 120°18'0 0.0
2014-Jul-07 07:26N 22°37' E 120°18'0 0.0
2014-Jul-07 06:32N 22°37' E 120°18'0 0.0
2014-Jul-07 05:32N 22°37' E 120°18'0 0.0
2014-Jul-07 04:32N 22°37' E 120°18'0 0.0
2014-Jul-07 03:26N 22°37' E 120°18'0 0.0
2014-Jul-07 02:26N 22°37' E 120°18'0 0.0
2014-Jul-07 01:32N 22°37' E 120°18'1 0.4
2014-Jul-06 23:33N 22°37' E 120°17'3 3.3
2014-Jul-06 22:30N 22°36' E 120°13'0 0.1
2014-Jul-06 21:30N 22°36' E 120°13'0 0.1
2014-Jul-06 20:30N 22°36' E 120°13'0 0.0
2014-Jul-06 19:30N 22°36' E 120°13'0 0.0
2014-Jul-06 18:30N 22°36' E 120°13'0 0.1
2014-Jul-06 17:30N 22°36' E 120°13'0 0.0
2014-Jul-06 16:30N 22°36' E 120°13'0 0.0
2014-Jul-06 15:30N 22°36' E 120°13'0 0.0
2014-Jul-06 14:30N 22°36' E 120°13'0 0.0
2014-Jul-06 13:30N 22°36' E 120°13'0 0.1
2014-Jul-06 12:30N 22°36' E 120°13'0 0.0
2014-Jul-06 11:30N 22°36' E 120°13'0 0.0
2014-Jul-06 10:30N 22°36' E 120°13'0 0.1
2014-Jul-06 09:30N 22°36' E 120°13'0 0.1
2014-Jul-06 08:25N 22°36' E 120°13'6 7.2
2014-Jul-06 07:33N 22°41' E 120°09'  
2014-Jul-01 12:30N 34°52' E 139°22'1111.8
2014-Jul-01 11:33N 34°60' E 139°32'1212.0
2014-Jul-01 10:34N 35°07' E 139°43'1110.9
2014-Jul-01 09:34N 35°18' E 139°44'10 9.8
2014-Jul-01 08:34N 35°27' E 139°41'2 1.7
2014-Jul-01 07:31N 35°28' E 139°39'0 0.0
2014-Jul-01 06:31N 35°28' E 139°39'0 0.0
2014-Jul-01 05:31N 35°28' E 139°39'0 0.0
2014-Jul-01 04:31N 35°28' E 139°39'0 0.0
2014-Jul-01 03:31N 35°28' E 139°39'0 0.0
2014-Jul-01 02:31N 35°28' E 139°39'0 0.0
2014-Jul-01 01:31N 35°28' E 139°39'0 0.0
2014-Jul-01 00:31N 35°28' E 139°39'0 0.0
2014-Jun-30 23:31N 35°28' E 139°39'0 0.0
2014-Jun-30 22:31N 35°28' E 139°39'2 1.6
2014-Jun-30 21:33N 35°27' E 139°40'2 2.1
2014-Jun-30 20:32N 35°25' E 139°42'0 0.1
2014-Jun-30 19:32N 35°26' E 139°42'0 0.1
2014-Jun-30 18:32N 35°26' E 139°42'0 0.0
2014-Jun-30 17:32N 35°26' E 139°42'0 0.0
2014-Jun-30 16:32N 35°26' E 139°42'1 1.3
2014-Jun-30 15:33N 35°25' E 139°43'7 6.9
2014-Jun-30 14:33N 35°18' E 139°44'10 9.9
2014-Jun-30 13:33N 35°09' E 139°47'1212.1
2014-Jun-30 12:34N 34°59' E 139°38'1613.1
2014-Jun-30 11:21N 34°51' E 139°21'  

Dump ship's entire track history